»·PEaware :: SWA2165 KLAS-KPHX

SWA2165 :: KLAS-KPHX

FLIGHT INFORMATION

Flight Status: Arrived
Operator:
Southwest Airlines
More flights by this operator :: More flights under this callsign
Pilot: Cody B. (17747)
Aircraft: BOEING 737-800
(B738)
More flights by this aircraft type
Origin: KLAS McCarran Intl
United States
Destination: KPHX Phoenix Sky Harbor Intl
United States
More flights between these airports :: More routes between these airports
Route: +PRFUM4 PRFUM WOTRO BRUSR1
File this flight plan on PilotEdge
Remarks:
Altitude:
(Current/Filed)
31,000ft
Speed:
(Current/Filed)
464kts
Departed: 13-Jul-18 11:22 AM
Arrived: 13-Jul-18 12:12 PM
Distance/Time
Traveled:
222nm/0:49
Distance/Time
To Go:
Arrived

Flight Plot

Page will automatically refresh every two minutes.

Flight plan parsing failed; only flown route is shown


Map Options




Map Legend


Flown Route
Filed Route
Departure Airport
Arrival Airport
Navaid (VOR, NDB)
Fix

Horizontal Profiles

Position Reports

Time Latitude Longitude Heading Altitude Ground
Speed
13-Jul-18 10:30 36.079926 -115.147119 57 2149ft 0kts
13-Jul-18 10:31 36.079926 -115.147119 57 2149ft 0kts
13-Jul-18 10:32 36.079926 -115.147119 57 2149ft 0kts
13-Jul-18 10:33 36.079926 -115.147119 57 2149ft 0kts
13-Jul-18 10:34 36.079926 -115.147119 57 2149ft 0kts
13-Jul-18 10:35 36.079926 -115.147119 57 2149ft 0kts
13-Jul-18 10:36 36.079926 -115.147119 57 2149ft 0kts
13-Jul-18 10:37 36.079926 -115.147119 57 2149ft 0kts
13-Jul-18 10:38 36.079926 -115.147119 57 2149ft 0kts
13-Jul-18 10:39 36.079926 -115.147119 57 2149ft 0kts
13-Jul-18 10:40 36.079926 -115.147119 57 2149ft 0kts
13-Jul-18 10:41 36.079926 -115.147119 57 2149ft 0kts
13-Jul-18 10:42 36.079926 -115.147119 57 2149ft 0kts
13-Jul-18 10:43 36.079926 -115.147119 57 2149ft 0kts
13-Jul-18 10:44 36.079926 -115.147119 57 2149ft 0kts
13-Jul-18 10:45 36.079926 -115.147119 57 2149ft 0kts
13-Jul-18 10:46 36.079926 -115.147119 57 2149ft 0kts
13-Jul-18 10:47 36.079926 -115.147119 57 2149ft 0kts
13-Jul-18 10:48 36.079926 -115.147119 57 2149ft 0kts
13-Jul-18 10:49 36.079926 -115.147119 57 2149ft 0kts
13-Jul-18 10:50 36.079926 -115.147119 57 2149ft 0kts
13-Jul-18 10:51 36.079926 -115.147119 57 2149ft 0kts
13-Jul-18 10:52 36.079926 -115.147119 57 2149ft 0kts
13-Jul-18 10:53 36.079926 -115.147119 57 2149ft 0kts
13-Jul-18 10:54 36.079926 -115.147119 57 2149ft 0kts
13-Jul-18 10:55 36.079926 -115.147119 57 2149ft 0kts
13-Jul-18 10:56 36.079926 -115.147119 57 2149ft 0kts
13-Jul-18 10:57 36.079926 -115.147119 57 2149ft 0kts
13-Jul-18 10:58 36.079926 -115.147119 57 2149ft 0kts
13-Jul-18 10:59 36.079926 -115.147119 57 2149ft 0kts
13-Jul-18 11:00 36.079926 -115.147119 57 2149ft 0kts
13-Jul-18 11:01 36.079926 -115.147119 57 2149ft 0kts
13-Jul-18 11:02 36.079926 -115.147119 57 2149ft 0kts
13-Jul-18 11:03 36.079926 -115.147119 57 2149ft 0kts
13-Jul-18 11:04 36.079891 -115.147223 82 2149ft 2kts
13-Jul-18 11:05 36.079929 -115.147864 149 2149ft 1kts
13-Jul-18 11:06 36.080010 -115.147910 155 2149ft 0kts
13-Jul-18 11:07 36.080010 -115.147910 155 2149ft 0kts
13-Jul-18 11:08 36.079435 -115.147604 156 2148ft 3kts
13-Jul-18 11:09 36.079251 -115.147502 155 2149ft 0kts
13-Jul-18 11:10 36.079251 -115.147502 155 2149ft 0kts
13-Jul-18 11:11 36.079251 -115.147502 155 2149ft 0kts
13-Jul-18 11:12 36.078811 -115.147215 145 2149ft 6kts
13-Jul-18 11:13 36.078376 -115.144904 95 2148ft 10kts
13-Jul-18 11:14 36.078252 -115.139950 89 2149ft 15kts
13-Jul-18 11:15 36.078255 -115.134201 89 2149ft 17kts
13-Jul-18 11:16 36.078258 -115.129110 90 2149ft 14kts
13-Jul-18 11:17 36.078267 -115.124012 90 2149ft 15kts
13-Jul-18 11:18 36.077378 -115.121469 146 2149ft 0kts
13-Jul-18 11:19 36.077379 -115.121469 146 2149ft 0kts
13-Jul-18 11:20 36.077379 -115.121469 146 2149ft 0kts
13-Jul-18 11:21 36.077002 -115.121335 173 2149ft 5kts
13-Jul-18 11:22 36.076399 -115.125118 270 2149ft 26kts
13-Jul-18 11:23 36.076227 -115.165850 270 2366ft 200kts
13-Jul-18 11:24 36.074761 -115.236271 250 4757ft 231kts
13-Jul-18 11:25 36.018289 -115.283456 199 6786ft 279kts
13-Jul-18 11:26 35.941872 -115.298130 164 9264ft 297kts
13-Jul-18 11:27 35.868308 -115.252820 129 11410ft 324kts
13-Jul-18 11:28 35.837279 -115.148947 105 13761ft 337kts
13-Jul-18 11:29 35.820061 -115.036373 83 16075ft 345kts
13-Jul-18 11:30 35.831190 -114.917271 83 18179ft 356kts
13-Jul-18 11:31 35.841032 -114.793918 83 19144ft 362kts
13-Jul-18 11:32 35.850373 -114.670547 84 19145ft 362kts
13-Jul-18 11:33 35.828666 -114.551521 120 20403ft 372kts
13-Jul-18 11:34 35.772303 -114.442615 122 22132ft 383kts
13-Jul-18 11:35 35.713840 -114.331917 123 23665ft 395kts
13-Jul-18 11:36 35.653857 -114.219027 122 25317ft 400kts
13-Jul-18 11:37 35.592679 -114.104376 122 26753ft 406kts
13-Jul-18 11:38 35.530150 -113.987682 122 28087ft 412kts
13-Jul-18 11:39 35.466847 -113.869954 122 29311ft 418kts
13-Jul-18 11:40 35.405231 -113.755690 123 30669ft 415kts
13-Jul-18 11:41 35.341347 -113.637486 123 31234ft 430kts
13-Jul-18 11:42 35.273191 -113.511699 123 31232ft 454kts
13-Jul-18 11:43 35.205858 -113.387542 122 30285ft 423kts
13-Jul-18 11:44 35.142377 -113.270812 123 29360ft 418kts
13-Jul-18 11:45 35.076889 -113.151266 123 29226ft 428kts
13-Jul-18 11:46 35.010283 -113.030966 123 29329ft 428kts
13-Jul-18 11:47 34.943612 -112.910797 123 29328ft 428kts
13-Jul-18 11:48 34.877591 -112.792289 124 28512ft 439kts
13-Jul-18 11:49 34.812919 -112.676639 123 25544ft 401kts
13-Jul-18 11:50 34.750989 -112.566324 124 23298ft 385kts
13-Jul-18 11:51 34.687350 -112.463994 139 23510ft 392kts
13-Jul-18 11:52 34.602178 -112.380342 140 22909ft 394kts
13-Jul-18 11:53 34.520909 -112.301419 141 21650ft 381kts
13-Jul-18 11:54 34.439228 -112.228586 160 20514ft 362kts
13-Jul-18 11:55 34.341710 -112.201413 168 19331ft 359kts
13-Jul-18 11:56 34.244722 -112.176766 167 18193ft 354kts
13-Jul-18 11:57 34.150429 -112.152677 167 17030ft 337kts
13-Jul-18 11:58 34.062686 -112.158391 209 15690ft 321kts
13-Jul-18 11:59 33.988196 -112.214301 212 14686ft 317kts
13-Jul-18 12:00 33.915001 -112.270412 212 13675ft 309kts
13-Jul-18 12:01 33.840010 -112.299781 151 12872ft 308kts
13-Jul-18 12:02 33.773709 -112.235986 140 12130ft 308kts
13-Jul-18 12:03 33.708647 -112.170696 150 10450ft 317kts
13-Jul-18 12:04 33.624832 -112.161140 185 8529ft 298kts
13-Jul-18 12:05 33.563061 -112.210890 222 6936ft 261kts
13-Jul-18 12:06 33.510096 -112.267453 222 5089ft 251kts
13-Jul-18 12:07 33.458836 -112.310328 169 4054ft 220kts
13-Jul-18 12:08 33.429643 -112.252406 91 4015ft 196kts
13-Jul-18 12:09 33.428837 -112.194987 89 4015ft 159kts
13-Jul-18 12:10 33.428848 -112.142468 88 3076ft 163kts
13-Jul-18 12:11 33.428870 -112.088868 88 2192ft 162kts
13-Jul-18 12:12 33.428918 -112.034718 90 1326ft 166kts
13-Jul-18 12:13 33.428977 -112.005810 76 1142ft 9kts
13-Jul-18 12:14 33.429947 -112.003716 76 1142ft 10kts
13-Jul-18 12:15 33.431747 -112.003247 358 1142ft 0kts
13-Jul-18 12:16 33.432154 -112.001736 89 1142ft 13kts
13-Jul-18 12:17 33.432197 -111.998336 69 1142ft 7kts
13-Jul-18 12:18 33.433269 -111.997836 2 1142ft 2kts
13-Jul-18 12:19 33.433924 -111.997780 35 1142ft 0kts
13-Jul-18 12:20 33.434046 -111.997337 75 1142ft 0kts
13-Jul-18 12:21 33.434047 -111.997329 75 1142ft 0kts
13-Jul-18 12:22 33.434047 -111.997329 75 1142ft 0kts
13-Jul-18 12:23 33.434047 -111.997329 75 1142ft 0kts

Navigation Log

Ident Type
Flight plan parsing failed, navigation log unavailable